createdAt,value
2023-03-01T00:02:09.358Z,19.80
2023-03-01T00:07:10.964Z,20.07
2023-03-01T00:12:12.638Z,21.87
2023-03-01T00:17:14.466Z,19.53
2023-03-01T00:22:16.043Z,22.43
2023-03-01T00:27:17.750Z,20.53
2023-03-01T00:32:19.572Z,22.53
2023-03-01T00:37:22.392Z,20.33
2023-03-01T00:42:24.218Z,19.07
2023-03-01T00:47:25.784Z,21.03
2023-03-01T00:52:27.734Z,20.17
2023-03-01T00:57:29.426Z,19.53
2023-03-01T01:02:33.537Z,21.23
2023-03-01T01:07:36.069Z,20.37
2023-03-01T01:12:38.328Z,21.37
2023-03-01T01:17:39.923Z,17.57
2023-03-01T01:22:41.521Z,19.33
2023-03-01T01:27:43.177Z,16.80
2023-03-01T01:32:44.741Z,18.10
2023-03-01T01:37:46.300Z,16.87
2023-03-01T01:42:47.921Z,18.53
2023-03-01T01:47:49.625Z,17.17
2023-03-01T01:52:52.038Z,16.90
2023-03-01T01:58:03.591Z,17.67
2023-03-01T02:03:14.354Z,18.03
2023-03-01T02:08:17.842Z,18.90
2023-03-01T02:13:19.557Z,17.30
2023-03-01T02:18:22.432Z,17.13
2023-03-01T02:23:24.141Z,18.50
2023-03-01T02:28:36.896Z,18.27
2023-03-01T02:33:39.532Z,19.30
2023-03-01T02:38:42.354Z,18.80
2023-03-01T02:43:44.328Z,20.00
2023-03-01T02:48:50.097Z,17.97
2023-03-01T02:54:08.038Z,20.23
2023-03-01T02:59:10.303Z,20.97
2023-03-01T03:04:18.643Z,20.83
2023-03-01T03:09:23.046Z,22.50
2023-03-01T03:14:24.799Z,19.97
2023-03-01T03:19:26.644Z,21.00
2023-03-01T03:24:39.211Z,19.10
2023-03-01T03:29:40.912Z,17.80
2023-03-01T03:34:42.601Z,19.50
2023-03-01T03:39:44.144Z,16.57
2023-03-01T03:44:45.733Z,16.33
2023-03-01T03:49:47.352Z,18.90
2023-03-01T03:54:48.922Z,17.47
2023-03-01T03:59:50.475Z,18.97
2023-03-01T04:04:52.026Z,20.50
2023-03-01T04:09:53.574Z,18.43
2023-03-01T04:14:55.218Z,16.90
2023-03-01T04:19:56.824Z,19.10
2023-03-01T04:24:58.428Z,17.70
2023-03-01T04:30:00.101Z,20.97
2023-03-01T04:35:01.863Z,19.33
2023-03-01T04:40:16.644Z,16.53
2023-03-01T04:45:18.337Z,16.73
2023-03-01T04:50:24.561Z,18.50
2023-03-01T04:55:27.620Z,19.53
2023-03-01T05:00:29.269Z,19.97
2023-03-01T05:05:37.145Z,18.30
2023-03-01T05:10:39.736Z,20.93
2023-03-01T05:15:41.501Z,18.93
2023-03-01T05:20:43.185Z,20.53
2023-03-01T05:25:45.010Z,19.60
2023-03-01T05:30:47.678Z,20.03
2023-03-01T05:35:50.952Z,16.90
2023-03-01T05:40:52.589Z,17.80
2023-03-01T05:45:54.232Z,17.50
2023-03-01T05:50:55.898Z,19.80
2023-03-01T05:55:57.532Z,16.53
2023-03-01T06:00:59.185Z,18.57
2023-03-01T06:06:00.821Z,19.93
2023-03-01T06:11:02.401Z,18.07
2023-03-01T06:16:07.762Z,17.23
2023-03-01T06:21:10.060Z,18.27
2023-03-01T06:26:11.739Z,18.70
2023-03-01T06:31:13.359Z,19.33
2023-03-01T06:36:19.656Z,18.53
2023-03-01T06:41:21.690Z,18.37
2023-03-01T06:46:23.417Z,17.73
2023-03-01T06:51:25.095Z,19.83
2023-03-01T06:56:26.642Z,18.40
2023-03-01T07:01:28.393Z,19.23
2023-03-01T07:06:30.275Z,19.77
2023-03-01T07:11:32.003Z,17.70
2023-03-01T07:16:34.013Z,19.20
2023-03-01T07:21:35.797Z,19.90
2023-03-01T07:26:37.882Z,20.53
2023-03-01T07:31:39.446Z,20.77
2023-03-01T07:36:43.967Z,21.10
2023-03-01T07:41:45.631Z,19.37
2023-03-01T07:46:47.262Z,22.23
2023-03-01T07:51:49.229Z,20.97
2023-03-01T07:56:50.824Z,23.43
2023-03-01T08:01:52.452Z,22.17
2023-03-01T08:06:55.257Z,21.97
2023-03-01T08:11:57.934Z,21.27
2023-03-01T08:16:59.704Z,22.20
2023-03-01T08:22:03.036Z,21.73
2023-03-01T08:27:04.808Z,22.87
2023-03-01T08:32:06.545Z,21.60
2023-03-01T08:37:08.224Z,22.43
2023-03-01T08:42:09.873Z,23.27
2023-03-01T08:47:11.458Z,22.93
2023-03-01T08:52:13.132Z,22.20
2023-03-01T08:57:14.803Z,23.37
2023-03-01T09:02:18.900Z,23.97
2023-03-01T09:07:20.511Z,24.03
2023-03-01T09:12:22.413Z,26.17
2023-03-01T09:17:24.064Z,22.23
2023-03-01T09:22:25.711Z,22.47
2023-03-01T09:27:27.291Z,21.73
2023-03-01T09:32:31.812Z,23.10
2023-03-01T09:37:35.236Z,27.23
2023-03-01T09:42:37.228Z,27.10
2023-03-01T09:47:38.862Z,23.00
2023-03-01T09:52:59.754Z,23.30
2023-03-01T09:58:27.172Z,23.20
2023-03-01T10:03:40.701Z,21.90
2023-03-01T10:08:47.984Z,24.20
2023-03-01T10:14:11.153Z,23.73
2023-03-01T10:19:16.908Z,22.40
2023-03-01T10:24:22.392Z,23.93
2023-03-01T10:29:35.741Z,22.07
2023-03-01T10:34:37.915Z,23.63
2023-03-01T10:39:59.061Z,22.40
2023-03-01T10:45:18.619Z,23.80
2023-03-01T10:50:24.347Z,22.47
2023-03-01T10:55:37.399Z,21.73
2023-03-01T11:00:49.501Z,17.57
2023-03-01T11:05:56.368Z,17.07
2023-03-01T11:11:13.829Z,17.13
2023-03-01T11:16:15.437Z,17.13
2023-03-01T11:21:17.345Z,16.60
2023-03-01T11:26:19.649Z,15.37
2023-03-01T11:31:22.900Z,15.03
2023-03-01T11:36:39.816Z,15.93
2023-03-01T11:41:42.445Z,15.37
2023-03-01T11:46:54.228Z,17.80
2023-03-01T11:52:04.737Z,16.40
2023-03-01T11:57:49.457Z,12.60
2023-03-01T12:03:20.092Z,14.50
2023-03-01T12:08:34.895Z,12.47
2023-03-01T12:13:55.296Z,12.70
2023-03-01T12:19:15.127Z,15.33
2023-03-01T12:24:22.820Z,14.30
2023-03-01T12:29:35.887Z,15.67
2023-03-01T12:35:02.680Z,15.67
2023-03-01T12:40:25.407Z,19.37
2023-03-01T12:45:49.126Z,16.33
2023-03-01T12:50:54.294Z,18.57
2023-03-01T12:55:59.602Z,17.40
2023-03-01T13:01:04.560Z,17.53
2023-03-01T13:06:18.907Z,15.73
2023-03-01T13:11:22.650Z,19.00
2023-03-01T13:16:30.801Z,16.97
2023-03-01T13:21:32.845Z,18.70
2023-03-01T13:27:14.656Z,18.00
2023-03-01T13:32:43.123Z,15.00
2023-03-01T13:37:45.993Z,17.63
2023-03-01T13:43:04.259Z,15.60
2023-03-01T13:48:27.205Z,16.23
2023-03-01T13:53:32.380Z,19.13
2023-03-01T13:58:49.258Z,18.50
2023-03-01T14:03:51.020Z,17.57
2023-03-01T14:09:03.090Z,19.93
2023-03-01T14:14:13.360Z,16.50
2023-03-01T14:19:32.597Z,18.03
2023-03-01T14:24:36.518Z,15.80
2023-03-01T14:29:39.442Z,15.67
2023-03-01T14:34:46.480Z,22.33
2023-03-01T14:39:48.792Z,19.40
2023-03-01T14:44:52.286Z,18.23
2023-03-01T14:50:08.577Z,14.83
2023-03-01T14:55:22.113Z,16.23
2023-03-01T15:00:29.356Z,16.15
2023-03-01T15:05:32.715Z,14.52
2023-03-01T15:10:36.987Z,15.87
2023-03-01T15:15:47.506Z,15.80
2023-03-01T15:20:50.315Z,16.57
2023-03-01T15:26:00.245Z,14.80
2023-03-01T15:31:19.036Z,17.53
2023-03-01T15:36:39.231Z,14.77
2023-03-01T15:41:49.176Z,14.68
2023-03-01T15:46:50.779Z,14.07
2023-03-01T15:51:55.753Z,13.33
2023-03-01T15:56:57.380Z,14.97
2023-03-01T16:01:59.038Z,14.67
2023-03-01T16:07:00.651Z,14.00
2023-03-01T16:12:02.686Z,16.80
2023-03-01T16:17:04.263Z,13.63
2023-03-01T16:22:06.136Z,12.77
2023-03-01T16:27:07.988Z,15.00
2023-03-01T16:32:09.686Z,14.03
2023-03-01T16:37:11.592Z,12.93
2023-03-01T16:42:13.204Z,14.17
2023-03-01T16:47:14.819Z,13.73
2023-03-01T16:52:16.373Z,12.97
2023-03-01T16:57:17.938Z,16.37
2023-03-01T17:02:20.761Z,14.07
2023-03-01T17:07:23.032Z,15.37
2023-03-01T17:12:24.603Z,16.07
2023-03-01T17:17:27.438Z,14.32
2023-03-01T17:22:29.122Z,16.23
2023-03-01T17:27:35.434Z,16.43
2023-03-01T17:32:37.240Z,17.43
2023-03-01T17:37:39.925Z,20.97
2023-03-01T17:42:41.547Z,20.37
2023-03-01T17:47:43.105Z,17.47
2023-03-01T17:52:44.716Z,16.47
2023-03-01T17:57:46.272Z,21.93
2023-03-01T18:02:47.918Z,19.07
2023-03-01T18:07:51.121Z,19.27
2023-03-01T18:12:52.691Z,22.07
2023-03-01T18:17:54.687Z,18.80
2023-03-01T18:22:56.369Z,17.47
2023-03-01T18:27:58.023Z,16.50
2023-03-01T18:32:59.579Z,11.43
2023-03-01T18:38:01.147Z,11.60
2023-03-01T18:43:02.717Z,12.07
2023-03-01T18:48:04.543Z,13.17
2023-03-01T18:53:06.220Z,13.10
2023-03-01T18:58:07.853Z,12.10
2023-03-01T19:03:11.193Z,15.27
2023-03-01T19:08:12.777Z,13.53
2023-03-01T19:13:14.351Z,14.00
2023-03-01T19:18:15.906Z,12.30
2023-03-01T19:23:17.525Z,11.80
2023-03-01T19:28:19.165Z,14.10
2023-03-01T19:33:20.699Z,10.97
2023-03-01T19:38:23.561Z,12.67
2023-03-01T19:43:25.266Z,10.33
2023-03-01T19:48:27.372Z,12.70
2023-03-01T19:53:29.018Z,11.40
2023-03-01T19:58:31.540Z,13.03
2023-03-01T20:03:36.631Z,10.93
2023-03-01T20:08:38.410Z,14.47
2023-03-01T20:13:40.031Z,15.67
2023-03-01T20:18:41.700Z,18.83
2023-03-01T20:23:43.354Z,13.80
2023-03-01T20:28:46.110Z,16.90
2023-03-01T20:33:48.380Z,17.37
2023-03-01T20:38:52.771Z,15.40
2023-03-01T20:43:56.427Z,17.63
2023-03-01T20:48:58.281Z,14.53
2023-03-01T20:54:00.079Z,19.33
2023-03-01T20:59:04.399Z,14.50
2023-03-01T21:04:06.336Z,15.57
2023-03-01T21:09:08.005Z,16.40
2023-03-01T21:14:12.386Z,14.03
2023-03-01T21:19:14.115Z,17.10
2023-03-01T21:24:15.792Z,16.17
2023-03-01T21:29:17.378Z,17.40
2023-03-01T21:34:18.929Z,19.07
2023-03-01T21:39:21.523Z,16.90
2023-03-01T21:44:24.447Z,20.13
2023-03-01T21:49:26.860Z,22.33
2023-03-01T21:54:28.538Z,18.07
2023-03-01T21:59:30.524Z,18.93
2023-03-01T22:04:32.113Z,15.80
2023-03-01T22:09:36.126Z,16.33
2023-03-01T22:14:37.758Z,18.43
2023-03-01T22:19:39.380Z,21.43
2023-03-01T22:24:40.914Z,21.80
2023-03-01T22:29:42.468Z,19.23
2023-03-01T22:34:44.060Z,20.37
2023-03-01T22:39:45.610Z,19.33
2023-03-01T22:44:47.192Z,20.37
2023-03-01T22:56:49.521Z,17.67
2023-03-01T23:01:52.608Z,22.33
2023-03-01T23:06:54.489Z,24.00
2023-03-01T23:11:56.976Z,19.63
2023-03-01T23:17:01.435Z,21.60
2023-03-01T23:22:03.089Z,21.87
2023-03-01T23:27:05.301Z,21.53
2023-03-01T23:32:07.039Z,25.07
2023-03-01T23:37:10.304Z,24.07
2023-03-01T23:42:11.901Z,22.13
2023-03-01T23:47:13.591Z,25.10
2023-03-01T23:52:17.242Z,23.57
2023-03-01T23:57:19.798Z,19.43
